Forside
METAR-TAF:

METAR-TAF

Lufthavne :

Ponta Delgada, Azorerne, Portugal

Breddekreds: 37-44N, længdekreds: 025-42W, højde: 71 m

Aktuelle vejr

Denne rapport blev lavet for 39 minutter siden, kl. 18:30 UTC
Vind 11 kt fra nordnordøst, varierende mellem nord og østnordøst
Temperatur 22°C
Fugtighed 60%
Tryk 1023 hPa
Sigt 10 km eller mere
Nogle få skyer i en højde af 2500 ft

METAR: LPPD 221830Z 02011KT 350V060 9999 FEW025 22/14 Q1023

Tid: 19:09 (19:09 UTC)

Vejrudsigter

Denne rapport blev lavet for 2 timer og 9 minutter siden, kl. 17:00 UTC
Foreløbig gælder fra 22 på 18 UTC til 23 på 18 UTC
Vind 10 kt fra nordnordøst
Sigt 10 km eller mere
Nogle få skyer i en højde af 2000 ft
Brudte skyer i en højde af 3500 ft
Midlertidig
fra 22 på 18 UTC til 23 på 18 UTC
Spredte skyer i en højde af 2500 ft

TAF: LPPD 221700Z 2218/2318 03010KT 9999 FEW020 BKN035 TEMPO 2218/2318 SCT025

Vejrobservationer og prognoser fra mere end 4000 lufthavne (METAR og TAF).

De gule og røde prikker repræsenterer de meteorologiske stationer.

Flyt musen over at se navnet på stationen.

Så klik over at se vejr observationer og prognoser.

At skifte det kort: Klik på de grønne knapper med et sort kors for at zoome ind; på den grønne knap med en bindestreg for at zoome ud; eller på de grønne pile for tilstødende kort.


METAR-TAF: